sensor_id;sensor_type;location;lat;lon;timestamp;P1;durP1;ratioP1;P2;durP2;ratioP2
13335;SDS011;6737;51.480;11.962;2022-10-28T00:01:03;4.57;;;2.90;;
13335;SDS011;6737;51.480;11.962;2022-10-28T00:03:31;4.93;;;2.90;;
13335;SDS011;6737;51.480;11.962;2022-10-28T00:06:11;3.50;;;2.58;;
13335;SDS011;6737;51.480;11.962;2022-10-28T00:08:39;3.85;;;2.50;;
13335;SDS011;6737;51.480;11.962;2022-10-28T00:11:07;4.43;;;2.70;;
13335;SDS011;6737;51.480;11.962;2022-10-28T00:13:42;4.35;;;3.05;;
13335;SDS011;6737;51.480;11.962;2022-10-28T00:16:19;3.38;;;2.75;;
13335;SDS011;6737;51.480;11.962;2022-10-28T00:18:46;6.63;;;2.85;;
13335;SDS011;6737;51.480;11.962;2022-10-28T00:21:14;5.68;;;2.55;;
13335;SDS011;6737;51.480;11.962;2022-10-28T00:23:42;4.82;;;2.70;;
13335;SDS011;6737;51.480;11.962;2022-10-28T00:26:10;5.18;;;2.80;;
13335;SDS011;6737;51.480;11.962;2022-10-28T00:28:39;4.75;;;2.58;;
13335;SDS011;6737;51.480;11.962;2022-10-28T00:31:10;4.40;;;2.50;;
13335;SDS011;6737;51.480;11.962;2022-10-28T00:33:37;4.40;;;2.50;;
13335;SDS011;6737;51.480;11.962;2022-10-28T00:36:19;4.05;;;2.47;;
13335;SDS011;6737;51.480;11.962;2022-10-28T00:38:50;3.53;;;2.50;;
13335;SDS011;6737;51.480;11.962;2022-10-28T00:41:21;4.97;;;2.55;;
13335;SDS011;6737;51.480;11.962;2022-10-28T00:43:49;4.22;;;2.83;;
13335;SDS011;6737;51.480;11.962;2022-10-28T00:46:18;4.28;;;2.50;;
13335;SDS011;6737;51.480;11.962;2022-10-28T00:48:46;4.47;;;2.40;;
13335;SDS011;6737;51.480;11.962;2022-10-28T00:51:15;5.60;;;2.85;;
13335;SDS011;6737;51.480;11.962;2022-10-28T00:53:43;4.55;;;2.80;;
13335;SDS011;6737;51.480;11.962;2022-10-28T00:56:12;5.40;;;2.53;;
13335;SDS011;6737;51.480;11.962;2022-10-28T00:58:39;4.25;;;2.33;;
13335;SDS011;6737;51.480;11.962;2022-10-28T01:01:06;4.90;;;2.60;;
13335;SDS011;6737;51.480;11.962;2022-10-28T01:03:31;5.10;;;2.58;;
13335;SDS011;6737;51.480;11.962;2022-10-28T01:05:57;6.05;;;2.70;;
13335;SDS011;6737;51.480;11.962;2022-10-28T01:08:25;6.13;;;3.00;;
13335;SDS011;6737;51.480;11.962;2022-10-28T01:13:34;5.60;;;3.03;;
13335;SDS011;6737;51.480;11.962;2022-10-28T01:16:22;3.25;;;2.70;;
13335;SDS011;6737;51.480;11.962;2022-10-28T01:27:32;4.47;;;2.42;;
13335;SDS011;6737;51.480;11.962;2022-10-28T01:35:12;3.83;;;2.55;;
13335;SDS011;6737;51.480;11.962;2022-10-28T01:43:12;6.13;;;2.60;;
13335;SDS011;6737;51.480;11.962;2022-10-28T01:46:05;5.05;;;2.53;;
13335;SDS011;6737;51.480;11.962;2022-10-28T01:51:43;4.10;;;2.35;;
13335;SDS011;6737;51.480;11.962;2022-10-28T01:54:14;3.90;;;2.30;;
13335;SDS011;6737;51.480;11.962;2022-10-28T01:56:43;4.40;;;2.28;;
13335;SDS011;6737;51.480;11.962;2022-10-28T01:59:13;5.32;;;2.47;;
13335;SDS011;6737;51.480;11.962;2022-10-28T02:01:43;4.38;;;2.58;;
13335;SDS011;6737;51.480;11.962;2022-10-28T02:04:09;5.10;;;2.38;;
13335;SDS011;6737;51.480;11.962;2022-10-28T02:06:35;4.55;;;2.58;;
13335;SDS011;6737;51.480;11.962;2022-10-28T02:22:57;5.13;;;2.70;;
13335;SDS011;6737;51.480;11.962;2022-10-28T02:28:15;4.28;;;2.38;;
13335;SDS011;6737;51.480;11.962;2022-10-28T02:30:56;4.40;;;2.28;;
13335;SDS011;6737;51.480;11.962;2022-10-28T02:33:28;4.63;;;2.15;;
13335;SDS011;6737;51.480;11.962;2022-10-28T02:36:12;3.08;;;2.40;;
13335;SDS011;6737;51.480;11.962;2022-10-28T02:38:44;6.90;;;2.50;;
13335;SDS011;6737;51.480;11.962;2022-10-28T02:43:52;3.97;;;2.50;;
13335;SDS011;6737;51.480;11.962;2022-10-28T02:46:23;4.88;;;2.72;;
13335;SDS011;6737;51.480;11.962;2022-10-28T02:48:52;7.65;;;2.53;;
13335;SDS011;6737;51.480;11.962;2022-10-28T02:51:29;4.95;;;2.58;;
13335;SDS011;6737;51.480;11.962;2022-10-28T02:54:07;4.17;;;2.27;;
13335;SDS011;6737;51.480;11.962;2022-10-28T02:56:38;4.15;;;2.28;;
13335;SDS011;6737;51.480;11.962;2022-10-28T02:59:12;3.90;;;2.60;;
13335;SDS011;6737;51.480;11.962;2022-10-28T03:01:38;6.07;;;3.13;;
13335;SDS011;6737;51.480;11.962;2022-10-28T03:04:04;4.40;;;2.83;;
13335;SDS011;6737;51.480;11.962;2022-10-28T03:06:30;5.50;;;2.97;;
13335;SDS011;6737;51.480;11.962;2022-10-28T03:08:56;5.60;;;2.92;;
13335;SDS011;6737;51.480;11.962;2022-10-28T03:11:21;5.13;;;2.90;;
13335;SDS011;6737;51.480;11.962;2022-10-28T03:13:47;6.45;;;3.45;;
13335;SDS011;6737;51.480;11.962;2022-10-28T03:16:13;3.88;;;2.67;;
13335;SDS011;6737;51.480;11.962;2022-10-28T03:18:39;4.53;;;2.83;;
13335;SDS011;6737;51.480;11.962;2022-10-28T03:21:04;5.40;;;3.00;;
13335;SDS011;6737;51.480;11.962;2022-10-28T03:23:30;3.97;;;2.92;;
13335;SDS011;6737;51.480;11.962;2022-10-28T03:25:56;6.18;;;3.33;;
13335;SDS011;6737;51.480;11.962;2022-10-28T03:28:22;5.70;;;3.20;;
13335;SDS011;6737;51.480;11.962;2022-10-28T03:30:47;4.53;;;3.00;;
13335;SDS011;6737;51.480;11.962;2022-10-28T03:33:13;5.25;;;3.72;;
13335;SDS011;6737;51.480;11.962;2022-10-28T03:35:39;5.28;;;3.10;;
13335;SDS011;6737;51.480;11.962;2022-10-28T03:38:05;6.30;;;3.55;;
13335;SDS011;6737;51.480;11.962;2022-10-28T03:40:31;5.22;;;2.78;;
13335;SDS011;6737;51.480;11.962;2022-10-28T03:42:56;4.18;;;3.10;;
13335;SDS011;6737;51.480;11.962;2022-10-28T03:45:22;4.95;;;2.95;;
13335;SDS011;6737;51.480;11.962;2022-10-28T03:47:48;5.18;;;2.80;;
13335;SDS011;6737;51.480;11.962;2022-10-28T03:50:14;5.53;;;3.17;;
13335;SDS011;6737;51.480;11.962;2022-10-28T03:52:41;8.35;;;2.75;;
13335;SDS011;6737;51.480;11.962;2022-10-28T03:55:08;9.77;;;2.90;;
13335;SDS011;6737;51.480;11.962;2022-10-28T03:57:34;6.88;;;3.03;;
13335;SDS011;6737;51.480;11.962;2022-10-28T04:00:00;7.35;;;3.08;;
13335;SDS011;6737;51.480;11.962;2022-10-28T04:02:26;6.82;;;2.75;;
13335;SDS011;6737;51.480;11.962;2022-10-28T04:04:52;3.75;;;2.75;;
13335;SDS011;6737;51.480;11.962;2022-10-28T04:07:18;4.20;;;3.05;;
13335;SDS011;6737;51.480;11.962;2022-10-28T04:09:43;5.43;;;2.70;;
13335;SDS011;6737;51.480;11.962;2022-10-28T04:12:09;4.50;;;2.83;;
13335;SDS011;6737;51.480;11.962;2022-10-28T04:14:36;3.97;;;2.40;;
13335;SDS011;6737;51.480;11.962;2022-10-28T04:17:01;3.78;;;2.75;;
13335;SDS011;6737;51.480;11.962;2022-10-28T04:19:27;7.05;;;2.67;;
13335;SDS011;6737;51.480;11.962;2022-10-28T04:21:53;4.37;;;2.60;;
13335;SDS011;6737;51.480;11.962;2022-10-28T04:24:18;4.32;;;2.63;;
13335;SDS011;6737;51.480;11.962;2022-10-28T04:26:44;6.93;;;2.55;;
13335;SDS011;6737;51.480;11.962;2022-10-28T04:29:10;4.80;;;3.50;;
13335;SDS011;6737;51.480;11.962;2022-10-28T04:31:35;6.13;;;2.40;;
13335;SDS011;6737;51.480;11.962;2022-10-28T04:34:01;4.38;;;2.90;;
13335;SDS011;6737;51.480;11.962;2022-10-28T04:36:27;8.05;;;2.92;;
13335;SDS011;6737;51.480;11.962;2022-10-28T04:38:53;4.73;;;3.37;;
13335;SDS011;6737;51.480;11.962;2022-10-28T04:41:18;5.95;;;3.38;;
13335;SDS011;6737;51.480;11.962;2022-10-28T04:43:44;4.93;;;3.30;;
13335;SDS011;6737;51.480;11.962;2022-10-28T04:46:10;5.78;;;3.20;;
13335;SDS011;6737;51.480;11.962;2022-10-28T04:48:35;4.25;;;3.08;;
13335;SDS011;6737;51.480;11.962;2022-10-28T04:51:01;5.93;;;2.95;;
13335;SDS011;6737;51.480;11.962;2022-10-28T04:53:27;5.70;;;2.72;;
13335;SDS011;6737;51.480;11.962;2022-10-28T04:55:56;7.50;;;3.10;;
13335;SDS011;6737;51.480;11.962;2022-10-28T04:58:24;4.13;;;2.80;;
13335;SDS011;6737;51.480;11.962;2022-10-28T05:00:50;7.00;;;3.27;;
13335;SDS011;6737;51.480;11.962;2022-10-28T05:03:16;8.03;;;2.93;;
13335;SDS011;6737;51.480;11.962;2022-10-28T05:05:42;5.73;;;3.10;;
13335;SDS011;6737;51.480;11.962;2022-10-28T05:08:08;6.63;;;3.15;;
13335;SDS011;6737;51.480;11.962;2022-10-28T05:10:33;4.27;;;2.83;;
13335;SDS011;6737;51.480;11.962;2022-10-28T05:12:59;5.25;;;3.08;;
13335;SDS011;6737;51.480;11.962;2022-10-28T05:15:25;5.83;;;2.90;;
13335;SDS011;6737;51.480;11.962;2022-10-28T05:17:50;5.30;;;3.58;;
13335;SDS011;6737;51.480;11.962;2022-10-28T05:20:17;6.30;;;3.07;;
13335;SDS011;6737;51.480;11.962;2022-10-28T05:22:45;4.75;;;2.70;;
13335;SDS011;6737;51.480;11.962;2022-10-28T05:25:12;6.70;;;2.93;;
13335;SDS011;6737;51.480;11.962;2022-10-28T05:27:38;4.57;;;3.05;;
13335;SDS011;6737;51.480;11.962;2022-10-28T05:30:04;6.67;;;3.00;;
13335;SDS011;6737;51.480;11.962;2022-10-28T05:32:30;4.00;;;2.83;;
13335;SDS011;6737;51.480;11.962;2022-10-28T05:34:56;4.22;;;3.00;;
13335;SDS011;6737;51.480;11.962;2022-10-28T05:37:22;3.90;;;2.40;;
13335;SDS011;6737;51.480;11.962;2022-10-28T05:39:48;3.22;;;2.60;;
13335;SDS011;6737;51.480;11.962;2022-10-28T05:42:14;5.13;;;2.58;;
13335;SDS011;6737;51.480;11.962;2022-10-28T05:44:39;4.70;;;2.88;;
13335;SDS011;6737;51.480;11.962;2022-10-28T05:47:05;4.60;;;2.60;;
13335;SDS011;6737;51.480;11.962;2022-10-28T05:49:31;5.03;;;2.70;;
13335;SDS011;6737;51.480;11.962;2022-10-28T05:51:56;5.67;;;2.60;;
13335;SDS011;6737;51.480;11.962;2022-10-28T05:54:22;3.67;;;2.50;;
13335;SDS011;6737;51.480;11.962;2022-10-28T05:56:48;4.37;;;2.40;;
13335;SDS011;6737;51.480;11.962;2022-10-28T05:59:14;7.00;;;3.40;;
13335;SDS011;6737;51.480;11.962;2022-10-28T06:01:39;5.87;;;3.23;;
13335;SDS011;6737;51.480;11.962;2022-10-28T06:04:05;4.37;;;2.80;;
13335;SDS011;6737;51.480;11.962;2022-10-28T06:06:31;5.85;;;2.70;;
13335;SDS011;6737;51.480;11.962;2022-10-28T06:08:57;5.07;;;2.43;;
13335;SDS011;6737;51.480;11.962;2022-10-28T06:11:22;5.37;;;3.00;;
13335;SDS011;6737;51.480;11.962;2022-10-28T06:13:48;3.60;;;2.80;;
13335;SDS011;6737;51.480;11.962;2022-10-28T06:16:14;9.48;;;3.63;;
13335;SDS011;6737;51.480;11.962;2022-10-28T06:18:40;4.43;;;2.90;;
13335;SDS011;6737;51.480;11.962;2022-10-28T06:21:05;5.30;;;3.37;;
13335;SDS011;6737;51.480;11.962;2022-10-28T06:23:31;6.97;;;3.03;;
13335;SDS011;6737;51.480;11.962;2022-10-28T06:25:58;6.70;;;3.15;;
13335;SDS011;6737;51.480;11.962;2022-10-28T06:28:25;6.18;;;3.33;;
13335;SDS011;6737;51.480;11.962;2022-10-28T06:30:52;8.38;;;5.03;;
13335;SDS011;6737;51.480;11.962;2022-10-28T06:33:17;10.02;;;5.53;;
13335;SDS011;6737;51.480;11.962;2022-10-28T06:35:43;10.73;;;5.07;;
13335;SDS011;6737;51.480;11.962;2022-10-28T06:38:09;8.75;;;5.10;;
13335;SDS011;6737;51.480;11.962;2022-10-28T06:40:35;7.88;;;4.32;;
13335;SDS011;6737;51.480;11.962;2022-10-28T06:43:01;8.98;;;4.38;;
13335;SDS011;6737;51.480;11.962;2022-10-28T06:45:30;6.78;;;4.10;;
13335;SDS011;6737;51.480;11.962;2022-10-28T06:47:58;9.30;;;3.63;;
13335;SDS011;6737;51.480;11.962;2022-10-28T06:50:29;8.52;;;4.43;;
13335;SDS011;6737;51.480;11.962;2022-10-28T06:52:55;5.85;;;3.50;;
13335;SDS011;6737;51.480;11.962;2022-10-28T06:55:25;5.82;;;3.50;;
13335;SDS011;6737;51.480;11.962;2022-10-28T06:57:52;7.50;;;3.47;;
13335;SDS011;6737;51.480;11.962;2022-10-28T07:00:18;8.02;;;3.70;;
13335;SDS011;6737;51.480;11.962;2022-10-28T07:02:44;5.40;;;3.45;;
13335;SDS011;6737;51.480;11.962;2022-10-28T07:05:14;5.05;;;3.53;;
13335;SDS011;6737;51.480;11.962;2022-10-28T07:07:40;6.50;;;3.30;;
13335;SDS011;6737;51.480;11.962;2022-10-28T07:10:05;4.90;;;3.22;;
13335;SDS011;6737;51.480;11.962;2022-10-28T07:12:31;7.78;;;3.05;;
13335;SDS011;6737;51.480;11.962;2022-10-28T07:14:57;5.55;;;3.20;;
13335;SDS011;6737;51.480;11.962;2022-10-28T07:17:23;5.25;;;2.70;;
13335;SDS011;6737;51.480;11.962;2022-10-28T07:19:49;4.95;;;3.30;;
13335;SDS011;6737;51.480;11.962;2022-10-28T07:22:15;5.22;;;3.08;;
13335;SDS011;6737;51.480;11.962;2022-10-28T07:24:40;6.25;;;3.03;;
13335;SDS011;6737;51.480;11.962;2022-10-28T07:27:07;4.80;;;2.78;;
13335;SDS011;6737;51.480;11.962;2022-10-28T07:29:33;6.32;;;2.90;;
13335;SDS011;6737;51.480;11.962;2022-10-28T07:31:59;8.10;;;2.83;;
13335;SDS011;6737;51.480;11.962;2022-10-28T07:34:25;5.90;;;3.13;;
13335;SDS011;6737;51.480;11.962;2022-10-28T07:36:51;4.00;;;2.72;;
13335;SDS011;6737;51.480;11.962;2022-10-28T07:39:18;6.20;;;3.40;;
13335;SDS011;6737;51.480;11.962;2022-10-28T07:41:44;8.90;;;3.40;;
13335;SDS011;6737;51.480;11.962;2022-10-28T07:44:10;3.08;;;2.70;;
13335;SDS011;6737;51.480;11.962;2022-10-28T07:46:36;5.15;;;3.13;;
13335;SDS011;6737;51.480;11.962;2022-10-28T07:49:02;7.10;;;3.33;;
13335;SDS011;6737;51.480;11.962;2022-10-28T07:51:27;8.50;;;3.30;;
13335;SDS011;6737;51.480;11.962;2022-10-28T07:53:54;6.13;;;3.38;;
13335;SDS011;6737;51.480;11.962;2022-10-28T07:56:21;6.35;;;2.95;;
13335;SDS011;6737;51.480;11.962;2022-10-28T07:58:47;6.68;;;3.38;;
13335;SDS011;6737;51.480;11.962;2022-10-28T08:01:14;4.75;;;3.08;;
13335;SDS011;6737;51.480;11.962;2022-10-28T08:03:41;7.63;;;3.15;;
13335;SDS011;6737;51.480;11.962;2022-10-28T08:06:11;4.28;;;3.15;;
13335;SDS011;6737;51.480;11.962;2022-10-28T08:08:46;3.03;;;2.53;;
13335;SDS011;6737;51.480;11.962;2022-10-28T08:11:16;5.68;;;2.78;;
13335;SDS011;6737;51.480;11.962;2022-10-28T08:13:43;6.43;;;3.17;;
13335;SDS011;6737;51.480;11.962;2022-10-28T08:16:11;6.35;;;2.78;;
13335;SDS011;6737;51.480;11.962;2022-10-28T08:18:37;6.05;;;2.80;;
13335;SDS011;6737;51.480;11.962;2022-10-28T08:21:04;7.07;;;3.03;;
13335;SDS011;6737;51.480;11.962;2022-10-28T08:23:31;6.53;;;2.90;;
13335;SDS011;6737;51.480;11.962;2022-10-28T08:25:57;5.43;;;3.00;;
13335;SDS011;6737;51.480;11.962;2022-10-28T08:28:23;5.45;;;2.92;;
13335;SDS011;6737;51.480;11.962;2022-10-28T08:30:49;6.78;;;3.13;;
13335;SDS011;6737;51.480;11.962;2022-10-28T08:33:15;4.28;;;2.75;;
13335;SDS011;6737;51.480;11.962;2022-10-28T08:35:41;8.10;;;2.85;;
13335;SDS011;6737;51.480;11.962;2022-10-28T08:38:07;5.72;;;2.60;;
13335;SDS011;6737;51.480;11.962;2022-10-28T08:43:17;5.57;;;3.17;;
13335;SDS011;6737;51.480;11.962;2022-10-28T08:46:12;7.00;;;2.88;;
13335;SDS011;6737;51.480;11.962;2022-10-28T08:48:54;6.43;;;2.75;;
13335;SDS011;6737;51.480;11.962;2022-10-28T08:51:42;4.07;;;2.70;;
13335;SDS011;6737;51.480;11.962;2022-10-28T08:54:22;4.57;;;2.60;;
13335;SDS011;6737;51.480;11.962;2022-10-28T08:56:53;4.55;;;2.70;;
13335;SDS011;6737;51.480;11.962;2022-10-28T08:59:33;7.65;;;3.00;;
13335;SDS011;6737;51.480;11.962;2022-10-28T09:02:02;3.92;;;2.70;;
13335;SDS011;6737;51.480;11.962;2022-10-28T09:04:39;4.68;;;2.75;;
13335;SDS011;6737;51.480;11.962;2022-10-28T09:07:12;3.55;;;2.60;;
13335;SDS011;6737;51.480;11.962;2022-10-28T09:09:42;5.50;;;2.45;;
13335;SDS011;6737;51.480;11.962;2022-10-28T09:15:00;6.70;;;3.03;;
13335;SDS011;6737;51.480;11.962;2022-10-28T09:33:39;5.80;;;2.53;;
13335;SDS011;6737;51.480;11.962;2022-10-28T09:36:20;4.65;;;2.47;;
13335;SDS011;6737;51.480;11.962;2022-10-28T09:38:51;4.15;;;2.60;;
13335;SDS011;6737;51.480;11.962;2022-10-28T09:41:23;4.03;;;2.47;;
13335;SDS011;6737;51.480;11.962;2022-10-28T09:46:35;6.13;;;2.83;;
13335;SDS011;6737;51.480;11.962;2022-10-28T09:49:14;3.53;;;2.40;;
13335;SDS011;6737;51.480;11.962;2022-10-28T09:51:52;4.82;;;2.47;;
13335;SDS011;6737;51.480;11.962;2022-10-28T09:54:31;6.15;;;2.60;;
13335;SDS011;6737;51.480;11.962;2022-10-28T09:57:10;5.80;;;2.50;;
13335;SDS011;6737;51.480;11.962;2022-10-28T09:59:36;6.63;;;2.47;;
13335;SDS011;6737;51.480;11.962;2022-10-28T10:02:15;4.80;;;2.58;;
13335;SDS011;6737;51.480;11.962;2022-10-28T10:05:48;5.00;;;2.90;;
13335;SDS011;6737;51.480;11.962;2022-10-28T10:08:17;3.90;;;2.35;;
13335;SDS011;6737;51.480;11.962;2022-10-28T10:13:13;4.05;;;2.67;;
13335;SDS011;6737;51.480;11.962;2022-10-28T10:15:46;6.30;;;3.03;;
13335;SDS011;6737;51.480;11.962;2022-10-28T10:18:38;4.43;;;2.70;;
13335;SDS011;6737;51.480;11.962;2022-10-28T10:21:13;4.40;;;2.40;;
13335;SDS011;6737;51.480;11.962;2022-10-28T10:23:41;5.93;;;2.58;;
13335;SDS011;6737;51.480;11.962;2022-10-28T10:26:13;6.10;;;2.78;;
13335;SDS011;6737;51.480;11.962;2022-10-28T10:28:45;5.00;;;2.58;;
13335;SDS011;6737;51.480;11.962;2022-10-28T10:31:19;8.60;;;2.90;;
13335;SDS011;6737;51.480;11.962;2022-10-28T10:33:47;6.20;;;2.67;;
13335;SDS011;6737;51.480;11.962;2022-10-28T10:36:18;5.38;;;2.30;;
13335;SDS011;6737;51.480;11.962;2022-10-28T10:38:54;4.78;;;2.53;;
13335;SDS011;6737;51.480;11.962;2022-10-28T10:41:34;4.93;;;2.35;;
13335;SDS011;6737;51.480;11.962;2022-10-28T10:46:45;5.90;;;2.58;;
13335;SDS011;6737;51.480;11.962;2022-10-28T10:49:34;6.70;;;2.78;;
13335;SDS011;6737;51.480;11.962;2022-10-28T10:52:21;5.72;;;2.90;;
13335;SDS011;6737;51.480;11.962;2022-10-28T10:54:57;4.25;;;2.15;;
13335;SDS011;6737;51.480;11.962;2022-10-28T10:57:30;3.38;;;2.25;;
13335;SDS011;6737;51.480;11.962;2022-10-28T10:59:57;5.85;;;2.53;;
13335;SDS011;6737;51.480;11.962;2022-10-28T11:02:25;6.40;;;2.22;;
13335;SDS011;6737;51.480;11.962;2022-10-28T11:04:56;3.63;;;2.00;;
13335;SDS011;6737;51.480;11.962;2022-10-28T11:07:27;7.45;;;2.20;;
13335;SDS011;6737;51.480;11.962;2022-10-28T11:09:54;4.68;;;1.98;;
13335;SDS011;6737;51.480;11.962;2022-10-28T11:12:28;3.08;;;1.70;;
13335;SDS011;6737;51.480;11.962;2022-10-28T11:15:18;3.95;;;2.10;;
13335;SDS011;6737;51.480;11.962;2022-10-28T11:20:43;5.75;;;2.20;;
13335;SDS011;6737;51.480;11.962;2022-10-28T11:26:06;4.65;;;2.30;;
13335;SDS011;6737;51.480;11.962;2022-10-28T11:31:37;8.77;;;2.13;;
13335;SDS011;6737;51.480;11.962;2022-10-28T11:45:08;5.43;;;2.28;;
13335;SDS011;6737;51.480;11.962;2022-10-28T11:50:37;4.00;;;1.85;;
13335;SDS011;6737;51.480;11.962;2022-10-28T11:53:33;2.67;;;1.70;;
13335;SDS011;6737;51.480;11.962;2022-10-28T12:18:04;4.97;;;1.83;;
13335;SDS011;6737;51.480;11.962;2022-10-28T12:20:33;4.50;;;1.90;;
13335;SDS011;6737;51.480;11.962;2022-10-28T12:23:16;4.00;;;2.30;;
13335;SDS011;6737;51.480;11.962;2022-10-28T12:25:45;3.88;;;1.88;;
13335;SDS011;6737;51.480;11.962;2022-10-28T12:28:21;6.28;;;2.10;;
13335;SDS011;6737;51.480;11.962;2022-10-28T12:31:02;6.25;;;2.25;;
13335;SDS011;6737;51.480;11.962;2022-10-28T12:33:34;4.25;;;1.77;;
13335;SDS011;6737;51.480;11.962;2022-10-28T12:38:41;3.72;;;2.08;;
13335;SDS011;6737;51.480;11.962;2022-10-28T12:41:26;4.25;;;2.25;;
13335;SDS011;6737;51.480;11.962;2022-10-28T12:44:08;5.28;;;2.30;;
13335;SDS011;6737;51.480;11.962;2022-10-28T12:58:00;3.95;;;2.47;;
13335;SDS011;6737;51.480;11.962;2022-10-28T13:00:52;4.43;;;2.20;;
13335;SDS011;6737;51.480;11.962;2022-10-28T13:03:21;4.85;;;2.40;;
13335;SDS011;6737;51.480;11.962;2022-10-28T13:06:30;3.67;;;2.30;;
13335;SDS011;6737;51.480;11.962;2022-10-28T13:12:15;3.20;;;1.83;;
13335;SDS011;6737;51.480;11.962;2022-10-28T13:23:09;4.38;;;2.22;;
13335;SDS011;6737;51.480;11.962;2022-10-28T13:28:13;4.93;;;2.42;;
13335;SDS011;6737;51.480;11.962;2022-10-28T13:30:54;4.32;;;2.30;;
13335;SDS011;6737;51.480;11.962;2022-10-28T13:33:24;4.93;;;2.20;;
13335;SDS011;6737;51.480;11.962;2022-10-28T13:35:52;3.70;;;2.00;;
13335;SDS011;6737;51.480;11.962;2022-10-28T13:38:21;4.75;;;2.20;;
13335;SDS011;6737;51.480;11.962;2022-10-28T13:49:30;5.38;;;2.30;;
13335;SDS011;6737;51.480;11.962;2022-10-28T14:00:00;8.38;;;2.60;;
13335;SDS011;6737;51.480;11.962;2022-10-28T14:02:38;4.22;;;2.38;;
13335;SDS011;6737;51.480;11.962;2022-10-28T14:05:25;5.15;;;2.15;;
13335;SDS011;6737;51.480;11.962;2022-10-28T14:13:30;4.65;;;2.20;;
13335;SDS011;6737;51.480;11.962;2022-10-28T14:16:21;4.93;;;2.20;;
13335;SDS011;6737;51.480;11.962;2022-10-28T14:19:15;3.50;;;2.28;;
13335;SDS011;6737;51.480;11.962;2022-10-28T14:21:55;6.03;;;2.25;;
13335;SDS011;6737;51.480;11.962;2022-10-28T14:40:54;7.72;;;2.22;;
13335;SDS011;6737;51.480;11.962;2022-10-28T14:43:32;4.15;;;2.20;;
13335;SDS011;6737;51.480;11.962;2022-10-28T14:48:58;5.53;;;2.20;;
13335;SDS011;6737;51.480;11.962;2022-10-28T14:51:38;6.15;;;1.95;;
13335;SDS011;6737;51.480;11.962;2022-10-28T14:54:08;4.43;;;1.90;;
13335;SDS011;6737;51.480;11.962;2022-10-28T14:56:40;4.63;;;2.03;;
13335;SDS011;6737;51.480;11.962;2022-10-28T14:59:16;5.38;;;1.92;;
13335;SDS011;6737;51.480;11.962;2022-10-28T15:01:52;5.25;;;2.03;;
13335;SDS011;6737;51.480;11.962;2022-10-28T15:04:41;6.45;;;2.10;;
13335;SDS011;6737;51.480;11.962;2022-10-28T15:07:10;5.65;;;2.10;;
13335;SDS011;6737;51.480;11.962;2022-10-28T15:09:39;3.47;;;2.00;;
13335;SDS011;6737;51.480;11.962;2022-10-28T15:12:09;4.03;;;2.22;;
13335;SDS011;6737;51.480;11.962;2022-10-28T15:19:47;4.93;;;2.10;;
13335;SDS011;6737;51.480;11.962;2022-10-28T15:24:51;6.75;;;2.20;;
13335;SDS011;6737;51.480;11.962;2022-10-28T15:27:26;6.43;;;2.20;;
13335;SDS011;6737;51.480;11.962;2022-10-28T15:29:54;5.60;;;2.17;;
13335;SDS011;6737;51.480;11.962;2022-10-28T15:34:46;5.97;;;2.50;;
13335;SDS011;6737;51.480;11.962;2022-10-28T15:37:16;4.28;;;1.90;;
13335;SDS011;6737;51.480;11.962;2022-10-28T15:39:43;5.75;;;2.00;;
13335;SDS011;6737;51.480;11.962;2022-10-28T15:45:23;4.88;;;2.08;;
13335;SDS011;6737;51.480;11.962;2022-10-28T15:47:51;4.45;;;2.00;;
13335;SDS011;6737;51.480;11.962;2022-10-28T15:50:20;5.47;;;2.30;;
13335;SDS011;6737;51.480;11.962;2022-10-28T15:52:53;5.53;;;1.95;;
13335;SDS011;6737;51.480;11.962;2022-10-28T15:55:40;5.63;;;2.33;;
13335;SDS011;6737;51.480;11.962;2022-10-28T16:00:49;5.10;;;2.10;;
13335;SDS011;6737;51.480;11.962;2022-10-28T16:03:25;5.30;;;2.15;;
13335;SDS011;6737;51.480;11.962;2022-10-28T16:05:59;4.20;;;2.10;;
13335;SDS011;6737;51.480;11.962;2022-10-28T16:08:28;6.15;;;2.13;;
13335;SDS011;6737;51.480;11.962;2022-10-28T16:13:28;7.30;;;2.13;;
13335;SDS011;6737;51.480;11.962;2022-10-28T16:16:04;4.15;;;2.28;;
13335;SDS011;6737;51.480;11.962;2022-10-28T16:18:31;3.80;;;2.22;;
13335;SDS011;6737;51.480;11.962;2022-10-28T16:21:02;4.45;;;2.03;;
13335;SDS011;6737;51.480;11.962;2022-10-28T16:23:31;5.32;;;2.55;;
13335;SDS011;6737;51.480;11.962;2022-10-28T16:26:02;5.22;;;2.10;;
13335;SDS011;6737;51.480;11.962;2022-10-28T16:28:29;6.57;;;2.50;;
13335;SDS011;6737;51.480;11.962;2022-10-28T16:30:57;6.03;;;2.50;;
13335;SDS011;6737;51.480;11.962;2022-10-28T16:33:29;7.25;;;2.38;;
13335;SDS011;6737;51.480;11.962;2022-10-28T16:36:00;5.13;;;2.22;;
13335;SDS011;6737;51.480;11.962;2022-10-28T16:38:30;5.47;;;2.40;;
13335;SDS011;6737;51.480;11.962;2022-10-28T16:40:58;4.57;;;2.33;;
13335;SDS011;6737;51.480;11.962;2022-10-28T16:43:25;5.72;;;2.45;;
13335;SDS011;6737;51.480;11.962;2022-10-28T16:45:53;6.20;;;2.35;;
13335;SDS011;6737;51.480;11.962;2022-10-28T16:48:21;6.78;;;2.65;;
13335;SDS011;6737;51.480;11.962;2022-10-28T16:50:49;5.55;;;2.10;;
13335;SDS011;6737;51.480;11.962;2022-10-28T16:53:17;8.27;;;2.60;;
13335;SDS011;6737;51.480;11.962;2022-10-28T16:55:43;6.43;;;2.28;;
13335;SDS011;6737;51.480;11.962;2022-10-28T16:58:09;6.82;;;2.47;;
13335;SDS011;6737;51.480;11.962;2022-10-28T17:00:36;8.30;;;2.92;;
13335;SDS011;6737;51.480;11.962;2022-10-28T17:03:02;6.40;;;2.75;;
13335;SDS011;6737;51.480;11.962;2022-10-28T17:05:29;5.95;;;2.40;;
13335;SDS011;6737;51.480;11.962;2022-10-28T17:07:55;5.72;;;2.72;;
13335;SDS011;6737;51.480;11.962;2022-10-28T17:10:22;6.82;;;2.65;;
13335;SDS011;6737;51.480;11.962;2022-10-28T17:12:48;6.18;;;2.30;;
13335;SDS011;6737;51.480;11.962;2022-10-28T17:15:14;5.07;;;2.83;;
13335;SDS011;6737;51.480;11.962;2022-10-28T17:17:40;6.47;;;2.63;;
13335;SDS011;6737;51.480;11.962;2022-10-28T17:20:06;6.38;;;2.78;;
13335;SDS011;6737;51.480;11.962;2022-10-28T17:22:32;6.40;;;2.40;;
13335;SDS011;6737;51.480;11.962;2022-10-28T17:24:58;5.10;;;2.65;;
13335;SDS011;6737;51.480;11.962;2022-10-28T17:27:24;5.15;;;2.38;;
13335;SDS011;6737;51.480;11.962;2022-10-28T17:29:50;5.65;;;2.38;;
13335;SDS011;6737;51.480;11.962;2022-10-28T17:32:16;11.70;;;2.67;;
13335;SDS011;6737;51.480;11.962;2022-10-28T17:34:42;4.50;;;2.38;;
13335;SDS011;6737;51.480;11.962;2022-10-28T17:37:08;4.15;;;1.85;;
13335;SDS011;6737;51.480;11.962;2022-10-28T17:39:34;6.88;;;3.10;;
13335;SDS011;6737;51.480;11.962;2022-10-28T17:42:01;10.55;;;2.63;;
13335;SDS011;6737;51.480;11.962;2022-10-28T17:44:27;6.50;;;2.45;;
13335;SDS011;6737;51.480;11.962;2022-10-28T17:46:53;7.13;;;2.50;;
13335;SDS011;6737;51.480;11.962;2022-10-28T17:49:19;7.43;;;2.47;;
13335;SDS011;6737;51.480;11.962;2022-10-28T17:51:45;8.38;;;2.65;;
13335;SDS011;6737;51.480;11.962;2022-10-28T17:54:10;5.20;;;2.47;;
13335;SDS011;6737;51.480;11.962;2022-10-28T17:56:36;4.85;;;2.30;;
13335;SDS011;6737;51.480;11.962;2022-10-28T17:59:03;6.63;;;2.60;;
13335;SDS011;6737;51.480;11.962;2022-10-28T18:01:31;7.90;;;2.80;;
13335;SDS011;6737;51.480;11.962;2022-10-28T18:03:57;4.70;;;2.60;;
13335;SDS011;6737;51.480;11.962;2022-10-28T18:06:23;5.90;;;2.25;;
13335;SDS011;6737;51.480;11.962;2022-10-28T18:08:50;5.78;;;2.65;;
13335;SDS011;6737;51.480;11.962;2022-10-28T18:11:16;7.35;;;2.55;;
13335;SDS011;6737;51.480;11.962;2022-10-28T18:13:45;10.02;;;2.65;;
13335;SDS011;6737;51.480;11.962;2022-10-28T18:16:14;4.68;;;2.50;;
13335;SDS011;6737;51.480;11.962;2022-10-28T18:18:42;7.10;;;2.63;;
13335;SDS011;6737;51.480;11.962;2022-10-28T18:21:08;6.00;;;2.50;;
13335;SDS011;6737;51.480;11.962;2022-10-28T18:23:37;6.10;;;2.40;;
13335;SDS011;6737;51.480;11.962;2022-10-28T18:26:13;3.70;;;2.15;;
13335;SDS011;6737;51.480;11.962;2022-10-28T18:28:40;5.20;;;2.42;;
13335;SDS011;6737;51.480;11.962;2022-10-28T18:31:14;5.63;;;2.47;;